createdAt,value
2022-10-14T00:01:35.289Z,52.08
2022-10-14T00:04:04.808Z,52.15
2022-10-14T00:06:35.128Z,50.40
2022-10-14T00:09:08.094Z,56.85
2022-10-14T00:11:38.895Z,55.30
2022-10-14T00:14:11.746Z,51.97
2022-10-14T00:16:43.175Z,53.55
2022-10-14T00:19:13.862Z,49.38
2022-10-14T00:21:45.710Z,54.22
2022-10-14T00:24:19.787Z,54.25
2022-10-14T00:26:48.981Z,50.17
2022-10-14T00:29:20.248Z,56.72
2022-10-14T00:31:49.876Z,57.60
2022-10-14T00:34:19.826Z,56.10
2022-10-14T00:36:49.151Z,54.22
2022-10-14T00:39:20.878Z,54.80
2022-10-14T00:41:50.033Z,59.60
2022-10-14T00:44:18.962Z,61.28
2022-10-14T00:46:49.996Z,57.88
2022-10-14T00:49:27.383Z,54.42
2022-10-14T00:52:12.883Z,50.55
2022-10-14T00:54:53.106Z,60.47
2022-10-14T00:57:23.877Z,53.13
2022-10-14T00:59:59.823Z,58.13
2022-10-14T01:02:29.531Z,53.25
2022-10-14T01:05:00.029Z,49.88
2022-10-14T01:07:53.783Z,62.03
2022-10-14T01:10:32.241Z,53.17
2022-10-14T01:13:25.464Z,59.25
2022-10-14T01:16:03.976Z,51.33
2022-10-14T01:18:46.347Z,60.05
2022-10-14T01:21:30.251Z,60.33
2022-10-14T01:24:17.261Z,55.17
2022-10-14T01:27:02.380Z,58.10
2022-10-14T01:29:47.957Z,60.80
2022-10-14T01:33:08.030Z,59.78
2022-10-14T01:36:03.739Z,59.88
2022-10-14T01:38:56.610Z,62.22
2022-10-14T01:41:41.552Z,58.45
2022-10-14T01:44:13.457Z,65.97
2022-10-14T01:46:47.792Z,65.65
2022-10-14T01:49:25.463Z,66.13
2022-10-14T01:52:03.554Z,68.75
2022-10-14T01:54:37.030Z,64.95
2022-10-14T01:57:15.289Z,74.45
2022-10-14T01:59:47.159Z,76.63
2022-10-14T02:02:16.625Z,70.47
2022-10-14T02:04:46.517Z,73.15
2022-10-14T02:07:33.596Z,74.38
2022-10-14T02:10:28.848Z,76.47
2022-10-14T02:13:40.770Z,79.80
2022-10-14T02:16:23.589Z,75.10
2022-10-14T02:19:03.062Z,71.95
2022-10-14T02:21:59.590Z,79.50
2022-10-14T02:24:41.475Z,83.13
2022-10-14T02:27:17.651Z,72.60
2022-10-14T02:29:48.819Z,76.68
2022-10-14T02:32:21.593Z,82.95
2022-10-14T02:34:56.357Z,80.47
2022-10-14T02:37:28.841Z,72.80
2022-10-14T02:40:09.335Z,79.28
2022-10-14T02:42:38.510Z,79.45
2022-10-14T02:45:08.955Z,75.60
2022-10-14T02:47:38.322Z,77.15
2022-10-14T02:50:08.191Z,82.40
2022-10-14T02:52:37.324Z,87.65
2022-10-14T02:55:06.852Z,91.03
2022-10-14T02:57:36.639Z,79.55
2022-10-14T03:00:07.518Z,89.47
2022-10-14T03:02:37.636Z,84.45
2022-10-14T03:05:07.558Z,83.57
2022-10-14T03:07:36.835Z,75.88
2022-10-14T03:10:10.330Z,82.82
2022-10-14T03:12:39.791Z,85.80
2022-10-14T03:15:15.385Z,81.45
2022-10-14T03:17:44.596Z,86.90
2022-10-14T03:20:14.643Z,88.03
2022-10-14T03:22:49.325Z,85.03
2022-10-14T03:25:20.050Z,85.10
2022-10-14T03:28:05.971Z,78.03
2022-10-14T03:30:56.539Z,84.55
2022-10-14T03:33:41.443Z,89.37
2022-10-14T03:36:14.021Z,78.80
2022-10-14T03:38:53.731Z,81.57
2022-10-14T03:41:35.624Z,81.28
2022-10-14T03:44:05.183Z,87.07
2022-10-14T03:46:36.623Z,107.80
2022-10-14T03:49:05.969Z,101.00
2022-10-14T03:51:35.302Z,99.43
2022-10-14T03:54:14.948Z,100.00
2022-10-14T03:56:44.200Z,105.68
2022-10-14T03:59:14.154Z,99.88
2022-10-14T04:01:48.431Z,94.57
2022-10-14T04:04:26.864Z,90.47
2022-10-14T04:06:57.121Z,88.57
2022-10-14T04:09:28.231Z,81.32
2022-10-14T04:12:00.020Z,86.60
2022-10-14T04:14:52.486Z,84.70
2022-10-14T04:17:22.723Z,79.07
2022-10-14T04:19:52.631Z,77.00
2022-10-14T04:22:23.973Z,77.28
2022-10-14T04:24:56.650Z,78.93
2022-10-14T04:27:26.225Z,73.88
2022-10-14T04:30:06.128Z,77.13
2022-10-14T04:32:47.195Z,77.70
2022-10-14T04:35:17.911Z,83.18
2022-10-14T04:37:51.303Z,78.93
2022-10-14T04:40:27.041Z,78.18
2022-10-14T04:42:58.795Z,77.15
2022-10-14T04:45:39.452Z,75.38
2022-10-14T04:48:11.175Z,65.50
2022-10-14T04:50:44.049Z,71.97
2022-10-14T04:53:42.451Z,66.57
2022-10-14T04:56:29.889Z,80.25
2022-10-14T04:59:05.009Z,95.97
2022-10-14T05:02:09.377Z,100.15
2022-10-14T05:04:48.501Z,111.18
2022-10-14T05:07:18.516Z,82.43
2022-10-14T05:09:55.482Z,83.95
2022-10-14T05:12:34.828Z,63.95
2022-10-14T05:15:07.242Z,70.05
2022-10-14T05:17:45.555Z,64.30
2022-10-14T05:20:18.052Z,65.35
2022-10-14T05:22:52.144Z,65.50
2022-10-14T05:25:21.627Z,66.28
2022-10-14T05:27:51.789Z,67.80
2022-10-14T05:30:20.854Z,59.35
2022-10-14T05:32:53.998Z,61.15
2022-10-14T05:35:46.330Z,63.80
2022-10-14T05:38:13.264Z,62.55
2022-10-14T05:40:52.127Z,60.50
2022-10-14T05:43:21.972Z,60.72
2022-10-14T05:45:51.448Z,67.72
2022-10-14T05:48:20.610Z,63.97
2022-10-14T05:50:50.759Z,59.90
2022-10-14T05:53:22.796Z,61.17
2022-10-14T05:56:06.549Z,56.90
2022-10-14T05:58:35.862Z,63.92
2022-10-14T06:01:07.658Z,61.58
2022-10-14T06:03:37.218Z,61.45
2022-10-14T06:06:07.022Z,55.10
2022-10-14T06:08:36.050Z,58.75
2022-10-14T06:11:07.192Z,71.90
2022-10-14T06:13:37.219Z,58.65
2022-10-14T06:16:10.980Z,55.10
2022-10-14T06:18:40.120Z,56.70
2022-10-14T06:21:09.247Z,61.75
2022-10-14T06:23:38.268Z,57.00
2022-10-14T06:26:09.837Z,58.65
2022-10-14T06:28:39.724Z,63.42
2022-10-14T06:31:08.794Z,67.03
2022-10-14T06:33:37.963Z,60.50
2022-10-14T06:36:08.067Z,65.07
2022-10-14T06:38:37.135Z,63.20
2022-10-14T06:41:06.150Z,58.65
2022-10-14T06:43:36.180Z,57.88
2022-10-14T06:46:06.346Z,57.42
2022-10-14T06:48:35.795Z,66.10
2022-10-14T06:51:07.063Z,56.72
2022-10-14T06:53:36.123Z,59.40
2022-10-14T06:56:08.069Z,57.85
2022-10-14T06:58:37.182Z,54.42
2022-10-14T07:01:07.591Z,53.35
2022-10-14T07:03:40.974Z,54.20
2022-10-14T07:06:10.574Z,56.97
2022-10-14T07:08:39.651Z,56.70
2022-10-14T07:11:09.070Z,55.60
2022-10-14T07:13:38.851Z,57.58
2022-10-14T07:16:08.039Z,60.50
2022-10-14T07:18:37.007Z,54.03
2022-10-14T07:21:07.097Z,61.72
2022-10-14T07:23:36.302Z,60.33
2022-10-14T07:26:05.542Z,57.20
2022-10-14T07:28:35.055Z,61.00
2022-10-14T07:31:10.550Z,63.70
2022-10-14T07:33:41.252Z,57.97
2022-10-14T07:36:15.132Z,60.28
2022-10-14T07:38:47.028Z,61.42
2022-10-14T07:41:22.641Z,177.35
2022-10-14T07:43:55.209Z,148.70
2022-10-14T07:46:35.428Z,88.88
2022-10-14T07:49:08.228Z,73.35
2022-10-14T07:51:37.896Z,58.85
2022-10-14T07:54:13.829Z,62.80
2022-10-14T07:56:46.721Z,58.78
2022-10-14T07:59:16.511Z,60.75
2022-10-14T08:01:48.681Z,60.60
2022-10-14T08:04:19.428Z,57.75
2022-10-14T08:06:54.672Z,59.78
2022-10-14T08:09:34.888Z,57.38
2022-10-14T08:12:04.582Z,58.80
2022-10-14T08:14:33.952Z,60.28
2022-10-14T08:17:10.919Z,60.35
2022-10-14T08:19:40.362Z,53.83
2022-10-14T08:22:12.376Z,54.58
2022-10-14T08:24:45.610Z,61.42
2022-10-14T08:27:17.186Z,67.15
2022-10-14T08:29:48.518Z,57.90
2022-10-14T08:32:21.505Z,63.17
2022-10-14T08:34:50.861Z,67.38
2022-10-14T08:37:20.115Z,62.28
2022-10-14T08:39:50.289Z,64.13
2022-10-14T08:42:25.065Z,65.25
2022-10-14T08:45:33.545Z,65.13
2022-10-14T08:48:13.344Z,67.80
2022-10-14T08:50:58.390Z,65.05
2022-10-14T08:53:41.401Z,65.03
2022-10-14T08:56:13.302Z,65.57
2022-10-14T08:58:52.293Z,64.28
2022-10-14T09:01:37.303Z,64.68
2022-10-14T09:04:08.910Z,69.43
2022-10-14T09:06:42.039Z,64.07
2022-10-14T09:09:23.779Z,60.28
2022-10-14T09:12:04.583Z,67.10
2022-10-14T09:14:38.322Z,67.13
2022-10-14T09:17:15.785Z,61.35
2022-10-14T09:20:16.437Z,66.43
2022-10-14T09:22:47.287Z,58.95
2022-10-14T09:25:18.930Z,65.85
2022-10-14T09:27:48.136Z,61.25
2022-10-14T09:30:22.015Z,63.65
2022-10-14T09:32:56.325Z,67.57
2022-10-14T09:35:34.606Z,60.83
2022-10-14T09:38:06.758Z,64.63
2022-10-14T09:40:38.016Z,61.50
2022-10-14T09:43:09.955Z,58.05
2022-10-14T09:46:08.688Z,59.83
2022-10-14T09:48:47.233Z,60.60
2022-10-14T09:51:30.104Z,67.65
2022-10-14T09:54:03.417Z,79.75
2022-10-14T09:56:43.572Z,61.70
2022-10-14T09:59:22.584Z,58.60
2022-10-14T10:01:54.091Z,62.17
2022-10-14T10:04:48.124Z,61.53
2022-10-14T10:07:30.479Z,62.92
2022-10-14T10:10:06.331Z,65.07
2022-10-14T10:12:36.790Z,63.50
2022-10-14T10:15:08.215Z,63.28
2022-10-14T10:17:41.568Z,62.22
2022-10-14T10:20:19.539Z,67.60
2022-10-14T10:22:48.668Z,61.97
2022-10-14T10:25:20.638Z,65.45
2022-10-14T10:27:50.444Z,58.75
2022-10-14T10:30:22.121Z,59.10
2022-10-14T10:32:56.661Z,65.07
2022-10-14T10:35:48.969Z,61.88
2022-10-14T10:38:32.745Z,62.95
2022-10-14T10:41:04.183Z,64.60
2022-10-14T10:44:09.959Z,68.00
2022-10-14T10:47:04.953Z,65.07
2022-10-14T10:50:15.382Z,60.35
2022-10-14T10:53:18.185Z,66.15
2022-10-14T10:55:55.967Z,62.92
2022-10-14T10:58:28.552Z,60.45
2022-10-14T11:01:25.319Z,67.50
2022-10-14T11:04:32.146Z,67.63
2022-10-14T11:07:49.101Z,66.53
2022-10-14T11:10:44.718Z,62.22
2022-10-14T11:13:37.929Z,65.15
2022-10-14T11:16:43.606Z,59.40
2022-10-14T11:19:42.054Z,62.42
2022-10-14T11:23:00.280Z,61.78
2022-10-14T11:26:12.635Z,56.65
2022-10-14T11:29:17.057Z,66.05
2022-10-14T11:32:05.086Z,55.45
2022-10-14T11:34:44.754Z,64.03
2022-10-14T11:37:40.248Z,60.67
2022-10-14T11:40:50.636Z,56.45
2022-10-14T11:43:25.710Z,62.83
2022-10-14T11:46:36.355Z,64.55
2022-10-14T11:49:21.013Z,58.92
2022-10-14T11:52:12.925Z,59.30
2022-10-14T11:54:48.623Z,60.15
2022-10-14T11:57:33.619Z,65.53
2022-10-14T12:00:06.814Z,59.63
2022-10-14T12:03:36.126Z,58.60
2022-10-14T12:06:44.886Z,60.40
2022-10-14T12:09:48.874Z,56.55
2022-10-14T12:12:21.024Z,55.50
2022-10-14T12:14:56.258Z,62.33
2022-10-14T12:17:47.458Z,58.42
2022-10-14T12:20:21.227Z,61.88
2022-10-14T12:22:51.594Z,60.63
2022-10-14T12:25:24.294Z,56.83
2022-10-14T12:27:54.448Z,53.40
2022-10-14T12:30:37.714Z,55.63
2022-10-14T12:33:22.655Z,52.33
2022-10-14T12:36:02.012Z,64.68
2022-10-14T12:38:35.338Z,52.63
2022-10-14T12:41:40.499Z,52.83
2022-10-14T12:44:19.524Z,54.58
2022-10-14T12:46:51.290Z,55.70
2022-10-14T12:49:29.807Z,53.97
2022-10-14T12:52:05.924Z,56.67
2022-10-14T12:54:38.438Z,57.80
2022-10-14T12:57:34.375Z,56.08
2022-10-14T13:00:27.501Z,58.57
2022-10-14T13:03:05.268Z,59.90
2022-10-14T13:05:38.724Z,55.25
2022-10-14T13:08:12.532Z,52.58
2022-10-14T13:10:46.108Z,60.28
2022-10-14T13:13:48.551Z,61.55
2022-10-14T13:16:26.378Z,55.17
2022-10-14T13:19:02.709Z,58.38
2022-10-14T13:21:37.827Z,58.92
2022-10-14T13:24:27.004Z,59.03
2022-10-14T13:26:56.326Z,54.80
2022-10-14T13:29:34.558Z,54.20
2022-10-14T13:32:22.690Z,58.30
2022-10-14T13:35:04.124Z,53.15
2022-10-14T13:37:44.823Z,52.22
2022-10-14T13:40:43.830Z,58.50
2022-10-14T13:43:22.260Z,57.10
2022-10-14T13:46:05.506Z,56.63
2022-10-14T13:48:38.561Z,54.90
2022-10-14T13:51:35.153Z,52.05
2022-10-14T13:56:40.222Z,51.67
2022-10-14T13:59:43.509Z,48.00
2022-10-14T14:02:21.970Z,48.97
2022-10-14T14:04:57.099Z,48.60
2022-10-14T14:10:25.453Z,51.90
2022-10-14T14:12:55.010Z,56.20
2022-10-14T14:15:30.036Z,48.05
2022-10-14T14:17:59.191Z,51.38
2022-10-14T14:20:30.333Z,49.38
2022-10-14T14:23:00.365Z,46.00
2022-10-14T14:25:34.546Z,49.38
2022-10-14T14:28:09.163Z,48.10
2022-10-14T14:30:40.682Z,48.75
2022-10-14T14:33:14.749Z,47.05
2022-10-14T14:35:53.857Z,44.35
2022-10-14T14:38:37.597Z,74.20
2022-10-14T14:41:18.713Z,55.00
2022-10-14T14:43:57.370Z,46.63
2022-10-14T14:46:42.489Z,50.65
2022-10-14T14:49:17.717Z,45.75
2022-10-14T14:51:47.378Z,50.58
2022-10-14T14:54:22.245Z,52.15
2022-10-14T14:57:03.441Z,45.17
2022-10-14T14:59:39.650Z,49.50
2022-10-14T15:02:23.381Z,50.10
2022-10-14T15:05:10.613Z,47.92
2022-10-14T15:07:44.585Z,52.60
2022-10-14T15:10:26.558Z,45.97
2022-10-14T15:12:58.686Z,51.28
2022-10-14T15:15:35.495Z,42.15
2022-10-14T15:18:08.141Z,49.53
2022-10-14T15:20:38.910Z,48.63
2022-10-14T15:23:41.819Z,50.80
2022-10-14T15:26:29.512Z,44.55
2022-10-14T15:32:15.446Z,49.10
2022-10-14T15:34:44.982Z,44.85
2022-10-14T15:37:14.739Z,50.70
2022-10-14T15:39:43.945Z,44.13
2022-10-14T15:42:13.932Z,51.83
2022-10-14T15:44:42.984Z,45.72
2022-10-14T15:47:23.235Z,46.42
2022-10-14T15:49:52.440Z,46.40
2022-10-14T15:52:24.432Z,44.35
2022-10-14T15:54:59.530Z,42.65
2022-10-14T15:57:28.750Z,43.33
2022-10-14T15:59:58.078Z,39.83
2022-10-14T16:02:34.346Z,44.80
2022-10-14T16:05:20.437Z,47.90
2022-10-14T16:07:50.733Z,47.53
2022-10-14T16:10:22.267Z,45.45
2022-10-14T16:12:51.728Z,43.30
2022-10-14T16:15:29.478Z,46.53
2022-10-14T16:17:59.189Z,44.70
2022-10-14T16:20:28.818Z,55.05
2022-10-14T16:22:59.214Z,47.10
2022-10-14T16:25:49.903Z,52.95
2022-10-14T16:28:20.358Z,43.03
2022-10-14T16:30:51.004Z,41.78
2022-10-14T16:33:25.019Z,41.45
2022-10-14T16:35:56.290Z,43.88
2022-10-14T16:38:25.807Z,44.67
2022-10-14T16:40:59.300Z,42.53
2022-10-14T16:43:29.565Z,44.10
2022-10-14T16:46:00.527Z,49.25
2022-10-14T16:48:30.196Z,45.63
2022-10-14T16:50:59.258Z,48.38
2022-10-14T16:53:42.422Z,45.13
2022-10-14T16:56:38.543Z,44.85
2022-10-14T16:59:09.080Z,48.08
2022-10-14T17:01:38.212Z,46.00
2022-10-14T17:04:14.778Z,46.17
2022-10-14T17:06:43.865Z,60.78
2022-10-14T17:09:17.122Z,46.92
2022-10-14T17:11:46.697Z,41.92
2022-10-14T17:14:19.209Z,51.05
2022-10-14T17:16:49.002Z,47.13
2022-10-14T17:19:18.300Z,45.67
2022-10-14T17:21:49.663Z,46.90
2022-10-14T17:24:18.916Z,53.28
2022-10-14T17:26:48.009Z,53.47
2022-10-14T17:29:17.054Z,50.00
2022-10-14T17:31:47.778Z,48.47
2022-10-14T17:34:16.954Z,46.95
2022-10-14T17:36:46.009Z,46.50
2022-10-14T17:39:21.282Z,47.65
2022-10-14T17:41:56.624Z,48.50
2022-10-14T17:44:25.742Z,43.22
2022-10-14T17:46:54.818Z,46.60
2022-10-14T17:49:23.818Z,51.13
2022-10-14T17:51:52.876Z,50.60
2022-10-14T17:54:21.921Z,45.60
2022-10-14T17:56:50.949Z,42.83
2022-10-14T17:59:19.986Z,44.45
2022-10-14T18:02:02.130Z,44.67
2022-10-14T18:04:33.239Z,46.90
2022-10-14T18:07:02.774Z,51.13
2022-10-14T18:09:31.764Z,46.55
2022-10-14T18:12:08.650Z,50.35
2022-10-14T18:14:41.312Z,45.97
2022-10-14T18:17:13.147Z,41.55
2022-10-14T18:19:46.136Z,43.45
2022-10-14T18:22:19.030Z,50.45
2022-10-14T18:24:48.322Z,46.67
2022-10-14T18:27:17.357Z,49.17
2022-10-14T18:29:46.619Z,52.72
2022-10-14T18:32:15.580Z,72.72
2022-10-14T18:34:47.627Z,82.70
2022-10-14T18:37:16.733Z,84.15
2022-10-14T18:39:45.707Z,89.70
2022-10-14T18:42:17.193Z,113.70
2022-10-14T18:44:49.171Z,130.45
2022-10-14T18:47:18.369Z,149.45
2022-10-14T18:49:50.413Z,156.07
2022-10-14T18:52:21.681Z,147.40
2022-10-14T18:54:51.103Z,152.02
2022-10-14T18:57:20.459Z,111.28
2022-10-14T18:59:52.071Z,111.20
2022-10-14T19:02:21.276Z,101.28
2022-10-14T19:04:50.467Z,109.05
2022-10-14T19:07:19.584Z,124.18
2022-10-14T19:09:51.864Z,117.60
2022-10-14T19:12:41.578Z,117.25
2022-10-14T19:15:11.961Z,111.70
2022-10-14T19:17:41.335Z,115.00
2022-10-14T19:20:10.691Z,116.32
2022-10-14T19:22:45.561Z,116.90
2022-10-14T19:25:14.651Z,95.10
2022-10-14T19:27:44.548Z,96.80
2022-10-14T19:30:14.102Z,88.43
2022-10-14T19:32:43.153Z,84.80
2022-10-14T19:35:12.160Z,74.65
2022-10-14T19:37:41.279Z,77.63
2022-10-14T19:40:10.624Z,83.63
2022-10-14T19:42:39.689Z,85.45
2022-10-14T19:45:08.949Z,80.00
2022-10-14T19:47:38.084Z,84.35
2022-10-14T19:50:07.772Z,102.78
2022-10-14T19:52:37.041Z,88.68
2022-10-14T19:55:06.923Z,89.43
2022-10-14T19:57:36.172Z,85.40
2022-10-14T20:00:05.601Z,91.57
2022-10-14T20:02:34.953Z,82.60
2022-10-14T20:05:04.295Z,90.10
2022-10-14T20:07:33.411Z,98.97
2022-10-14T20:10:03.180Z,95.35
2022-10-14T20:12:32.488Z,98.15
2022-10-14T20:15:01.448Z,103.85
2022-10-14T20:17:30.534Z,117.95
2022-10-14T20:19:59.722Z,105.57
2022-10-14T20:22:30.046Z,109.30
2022-10-14T20:24:59.427Z,101.80
2022-10-14T20:27:28.379Z,104.63
2022-10-14T20:29:57.568Z,111.88
2022-10-14T20:32:26.579Z,121.97
2022-10-14T20:34:55.695Z,122.78
2022-10-14T20:37:27.363Z,144.98
2022-10-14T20:39:57.362Z,138.27
2022-10-14T20:42:26.432Z,125.05
2022-10-14T20:44:55.665Z,126.30
2022-10-14T20:47:24.758Z,109.60
2022-10-14T20:49:54.133Z,112.65
2022-10-14T20:52:23.143Z,107.05
2022-10-14T20:54:52.245Z,103.35
2022-10-14T20:57:21.566Z,101.38
2022-10-14T20:59:50.798Z,121.85
2022-10-14T21:02:22.154Z,125.43
2022-10-14T21:04:54.712Z,101.78
2022-10-14T21:07:24.303Z,109.70
2022-10-14T21:09:53.678Z,116.47
2022-10-14T21:12:23.010Z,110.78
2022-10-14T21:14:52.251Z,116.15
2022-10-14T21:17:21.256Z,111.63
2022-10-14T21:19:50.542Z,125.85
2022-10-14T21:22:19.584Z,119.47
2022-10-14T21:24:49.338Z,123.88
2022-10-14T21:27:18.602Z,146.68
2022-10-14T21:29:50.629Z,148.65
2022-10-14T21:32:19.831Z,165.05
2022-10-14T21:34:48.863Z,146.32
2022-10-14T21:37:18.994Z,134.88
2022-10-14T21:39:48.370Z,137.73
2022-10-14T21:42:17.626Z,125.65
2022-10-14T21:44:46.878Z,120.22
2022-10-14T21:47:15.892Z,125.38
2022-10-14T21:49:45.233Z,124.28
2022-10-14T21:52:14.258Z,127.18
2022-10-14T21:54:43.517Z,118.45
2022-10-14T21:57:12.851Z,122.45
2022-10-14T21:59:42.051Z,127.95
2022-10-14T22:02:11.594Z,127.30
2022-10-14T22:04:41.630Z,138.90
2022-10-14T22:07:11.526Z,130.13
2022-10-14T22:09:40.767Z,137.45
2022-10-14T22:12:09.803Z,137.98
2022-10-14T22:14:38.995Z,135.48
2022-10-14T22:17:08.067Z,140.48
2022-10-14T22:19:37.110Z,154.27
2022-10-14T22:22:06.246Z,148.25
2022-10-14T22:24:35.647Z,146.27
2022-10-14T22:27:05.382Z,150.43
2022-10-14T22:29:34.813Z,157.90
2022-10-14T22:32:05.324Z,157.23
2022-10-14T22:34:34.687Z,146.85
2022-10-14T22:37:03.861Z,147.25
2022-10-14T22:39:33.196Z,142.77
2022-10-14T22:42:02.910Z,147.43
2022-10-14T22:44:32.019Z,151.95
2022-10-14T22:47:01.000Z,153.02
2022-10-14T22:49:30.759Z,144.75
2022-10-14T22:51:59.792Z,157.20
2022-10-14T22:54:30.735Z,152.60
2022-10-14T22:56:59.815Z,154.77
2022-10-14T22:59:30.500Z,145.73
2022-10-14T23:01:59.607Z,131.27
2022-10-14T23:04:30.560Z,128.48
2022-10-14T23:07:04.321Z,121.68
2022-10-14T23:12:09.493Z,117.78
2022-10-14T23:14:38.514Z,121.88
2022-10-14T23:17:07.549Z,118.22
2022-10-14T23:19:36.534Z,119.68
2022-10-14T23:22:05.664Z,113.10
2022-10-14T23:24:34.630Z,104.80
2022-10-14T23:27:05.890Z,95.95
2022-10-14T23:29:35.364Z,97.43
2022-10-14T23:32:04.802Z,98.88
2022-10-14T23:34:34.222Z,99.30
2022-10-14T23:37:03.734Z,99.82
2022-10-14T23:39:32.884Z,100.97
2022-10-14T23:42:02.558Z,86.25
2022-10-14T23:44:32.484Z,85.22
2022-10-14T23:47:01.665Z,94.85
2022-10-14T23:49:30.799Z,89.85
2022-10-14T23:52:00.129Z,66.05
2022-10-14T23:54:29.441Z,74.15
2022-10-14T23:56:58.818Z,84.38
2022-10-14T23:59:27.865Z,95.40
